Time;durP1;ratioP1;P1;durP2;ratioP2;P2;SDS_P1;SDS_P2;PMS_P1;PMS_P2;Temp;Humidity;BMP_temperature;BMP_pressure;BME280_temperature;BME280_humidity;BME280_pressure;Samples;Min_cycle;Max_cycle;Signal;HPM_P1;HPM_P2
2021/01/31 00:00:31;;;;;;;6.82;1.48;;;-0.70;99.90;;;;;;10335280;28;20042;-51
2021/01/31 00:05:53;;;;;;;7.72;2.78;;;-0.70;99.90;;;;;;10335221;28;20048;-51
2021/01/31 00:11:14;;;;;;;4.82;2.25;;;-0.80;99.90;;;;;;10333553;28;20162;-51
2021/01/31 00:16:35;;;;;;;8.48;2.50;;;-0.70;99.90;;;;;;10336096;28;20054;-51
2021/01/31 00:22:01;;;;;;;11.57;3.22;;;-0.80;99.90;;;;;;10334501;28;20053;-51
2021/01/31 00:27:26;;;;;;;10.13;2.10;;;-0.80;99.90;;;;;;10336841;28;20393;-52
2021/01/31 00:32:47;;;;;;;6.55;2.30;;;-0.90;99.90;;;;;;10358540;28;20045;-52
2021/01/31 00:38:10;;;;;;;5.68;2.00;;;-0.90;99.90;;;;;;10380172;28;20030;-52
2021/01/31 00:43:31;;;;;;;7.75;2.35;;;-0.90;99.90;;;;;;10383705;28;20033;-52
2021/01/31 00:48:52;;;;;;;8.27;2.17;;;-0.90;99.90;;;;;;10376287;28;20044;-52
2021/01/31 00:54:13;;;;;;;7.28;2.40;;;-0.90;99.90;;;;;;10377166;28;20401;-52
2021/01/31 00:59:34;;;;;;;7.72;2.80;;;-0.90;99.90;;;;;;10375387;28;20523;-53
2021/01/31 01:04:55;;;;;;;8.93;2.55;;;-1.00;99.90;;;;;;10377599;28;20083;-52
2021/01/31 01:10:20;;;;;;;8.20;2.88;;;-1.00;99.90;;;;;;10375294;28;20053;-53
2021/01/31 01:15:41;;;;;;;3.28;1.13;;;-1.10;99.90;;;;;;10377649;28;20117;-53
2021/01/31 01:21:02;;;;;;;2.78;1.30;;;-1.10;99.90;;;;;;10373707;28;20488;-52
2021/01/31 01:26:28;;;;;;;3.30;1.50;;;-1.10;99.90;;;;;;10376657;28;20125;-53
2021/01/31 01:31:49;;;;;;;7.80;2.40;;;-1.20;99.90;;;;;;10372709;28;20151;-53
2021/01/31 01:37:12;;;;;;;5.82;2.28;;;-1.20;99.90;;;;;;10376151;28;20117;-53
2021/01/31 01:42:34;;;;;;;3.03;1.50;;;-1.20;99.90;;;;;;10415719;28;20099;-53
2021/01/31 01:48:04;;;;;;;9.85;1.73;;;-1.20;99.90;;;;;;10418845;28;20056;-53
2021/01/31 01:53:26;;;;;;;5.22;2.63;;;-1.20;99.90;;;;;;10409299;28;20053;-53
2021/01/31 01:58:48;;;;;;;3.92;1.38;;;-1.20;99.90;;;;;;10375662;28;20377;-53
2021/01/31 02:04:09;;;;;;;3.00;1.02;;;-1.20;99.90;;;;;;10366439;28;20499;-53
2021/01/31 02:09:31;;;;;;;4.65;1.25;;;-1.30;99.90;;;;;;10373464;28;20459;-53
2021/01/31 02:14:55;;;;;;;2.65;1.92;;;-1.30;99.90;;;;;;10372335;28;20041;-53
2021/01/31 02:20:44;;;;;;;2.33;1.05;;;-1.30;99.90;;;;;;10398208;28;20037;-53
2021/01/31 02:26:10;;;;;;;3.53;0.70;;;-1.40;99.90;;;;;;10372693;28;20121;-53
2021/01/31 02:32:00;;;;;;;2.85;1.77;;;-1.30;99.90;;;;;;10411436;28;20402;-53
2021/01/31 02:37:55;;;;;;;8.20;1.52;;;-1.40;99.90;;;;;;10421714;28;20043;-53
2021/01/31 02:43:39;;;;;;;5.13;1.35;;;-1.40;99.90;;;;;;10422334;28;20124;-53
2021/01/31 02:49:20;;;;;;;11.57;1.55;;;-1.40;99.90;;;;;;10424804;28;20040;-53
2021/01/31 02:55:25;;;;;;;5.72;2.35;;;-1.40;99.90;;;;;;10419827;28;20072;-53
2021/01/31 03:01:15;;;;;;;3.40;1.35;;;-1.50;99.90;;;;;;10424192;28;20048;-53
2021/01/31 03:06:52;;;;;;;9.60;2.47;;;-1.50;99.90;;;;;;10425579;28;20044;-52
2021/01/31 03:12:23;;;;;;;5.90;1.58;;;-1.50;99.90;;;;;;10389507;28;20056;-53
2021/01/31 03:18:07;;;;;;;4.47;2.03;;;-1.50;99.90;;;;;;10402445;28;20033;-52
2021/01/31 03:23:36;;;;;;;2.03;1.30;;;-1.60;99.90;;;;;;10423202;28;20049;-53
2021/01/31 03:28:57;;;;;;;4.63;2.38;;;-1.60;99.90;;;;;;10419166;28;20056;-53
2021/01/31 03:34:24;;;;;;;2.63;1.00;;;-1.70;99.90;;;;;;10380834;28;20107;-52
2021/01/31 03:39:47;;;;;;;1.77;0.88;;;-1.70;99.90;;;;;;10380094;28;20050;-53
2021/01/31 03:45:09;;;;;;;4.25;2.00;;;-1.60;99.90;;;;;;10381619;28;20124;-52
2021/01/31 03:50:31;;;;;;;6.80;3.10;;;-1.60;99.90;;;;;;10419149;28;20353;-52
2021/01/31 03:55:53;;;;;;;9.63;1.23;;;-1.50;99.90;;;;;;10422315;28;20642;-52
2021/01/31 04:01:14;;;;;;;1.35;0.88;;;-1.60;99.90;;;;;;10402676;28;20114;-52
2021/01/31 04:06:36;;;;;;;5.47;2.13;;;-1.60;99.90;;;;;;10380819;28;20056;-52
2021/01/31 04:12:04;;;;;;;7.05;3.28;;;-1.60;99.90;;;;;;10379481;28;20038;-52
2021/01/31 04:17:26;;;;;;;5.93;2.40;;;-1.60;99.90;;;;;;10418239;28;20064;-52
2021/01/31 04:22:47;;;;;;;3.65;1.63;;;-1.70;99.90;;;;;;10418368;28;20681;-52
2021/01/31 04:28:11;;;;;;;4.32;1.80;;;-1.70;99.90;;;;;;10423214;28;20133;-52
2021/01/31 04:33:32;;;;;;;5.88;1.65;;;-1.80;99.90;;;;;;10388198;28;20054;-52
2021/01/31 04:38:53;;;;;;;1.80;0.85;;;-1.80;99.90;;;;;;10391254;28;20037;-52
2021/01/31 04:44:17;;;;;;;7.28;1.58;;;-1.80;99.90;;;;;;10423112;28;20051;-52
2021/01/31 04:50:04;;;;;;;5.88;2.65;;;-1.80;99.90;;;;;;10418872;28;20048;-52
2021/01/31 04:56:00;;;;;;;5.50;1.58;;;-1.80;99.90;;;;;;10395305;28;20373;-52
2021/01/31 05:01:22;;;;;;;3.60;1.77;;;-1.80;99.90;;;;;;10376868;28;20033;-52
2021/01/31 05:06:51;;;;;;;5.07;1.95;;;-1.80;99.90;;;;;;10387936;28;20090;-52
2021/01/31 05:12:21;;;;;;;2.70;1.17;;;-1.80;99.90;;;;;;10379397;28;20026;-52
2021/01/31 05:17:45;;;;;;;2.58;1.38;;;-1.90;99.90;;;;;;10379697;28;20049;-52
2021/01/31 05:23:06;;;;;;;6.10;1.77;;;-1.80;99.90;;;;;;10391029;28;20060;-52
2021/01/31 05:28:29;;;;;;;2.75;1.15;;;-1.90;99.90;;;;;;10386927;28;20041;-52
2021/01/31 05:33:56;;;;;;;3.25;1.05;;;-1.90;99.90;;;;;;10382213;28;20560;-52
2021/01/31 05:39:33;;;;;;;1.83;0.80;;;-1.90;99.90;;;;;;10420803;28;20056;-51
2021/01/31 05:45:20;;;;;;;4.10;2.10;;;-1.90;99.90;;;;;;10399038;28;20083;-51
2021/01/31 05:50:43;;;;;;;2.15;1.63;;;-2.00;99.90;;;;;;10377323;28;20049;-51
2021/01/31 05:56:14;;;;;;;2.90;0.82;;;-2.00;99.90;;;;;;10381083;28;20065;-52
2021/01/31 06:01:55;;;;;;;5.72;1.42;;;-2.00;99.90;;;;;;10387767;28;20244;-51
2021/01/31 06:07:19;;;;;;;2.42;0.80;;;-2.00;99.90;;;;;;10380955;28;20044;-52
2021/01/31 06:12:43;;;;;;;2.58;1.95;;;-2.00;99.90;;;;;;10381095;28;20485;-51
2021/01/31 06:18:16;;;;;;;1.48;1.02;;;-2.10;99.90;;;;;;10380647;28;20349;-51
2021/01/31 06:23:50;;;;;;;2.85;1.17;;;-2.00;99.90;;;;;;10406462;28;20048;-52
2021/01/31 06:29:26;;;;;;;5.75;1.80;;;-2.00;99.90;;;;;;10396998;28;20695;-51
2021/01/31 06:34:57;;;;;;;9.32;3.00;;;-2.10;99.90;;;;;;10378657;28;20111;-51
2021/01/31 06:40:40;;;;;;;3.30;0.98;;;-2.10;99.90;;;;;;10383701;28;20045;-51
2021/01/31 06:46:14;;;;;;;4.93;1.65;;;-2.20;99.90;;;;;;10380217;28;20055;-51
2021/01/31 06:51:43;;;;;;;1.95;1.42;;;-2.20;99.90;;;;;;10378547;28;20056;-51
2021/01/31 06:57:32;;;;;;;2.97;1.25;;;-2.10;99.90;;;;;;10374899;28;20034;-51
2021/01/31 07:03:27;;;;;;;6.88;1.85;;;-2.20;99.90;;;;;;10379906;28;20056;-51
2021/01/31 07:08:55;;;;;;;3.90;1.85;;;-2.20;99.90;;;;;;10407925;28;20530;-51
2021/01/31 07:14:30;;;;;;;5.05;1.58;;;-2.20;99.90;;;;;;10379590;28;20076;-51
2021/01/31 07:20:24;;;;;;;3.95;1.50;;;-2.20;99.90;;;;;;10422647;28;20055;-51
2021/01/31 07:25:52;;;;;;;3.50;1.35;;;-2.20;99.90;;;;;;10429056;28;20408;-51
2021/01/31 07:31:23;;;;;;;2.15;1.35;;;-2.20;99.90;;;;;;10428050;28;20053;-51
2021/01/31 07:37:03;;;;;;;3.47;1.63;;;-2.10;99.90;;;;;;10428129;28;20037;-51
2021/01/31 07:42:26;;;;;;;2.60;0.98;;;-2.20;99.90;;;;;;10425891;28;20037;-51
2021/01/31 07:47:48;;;;;;;7.55;1.13;;;-2.20;99.90;;;;;;10385631;28;20045;-50
2021/01/31 07:53:09;;;;;;;4.28;1.30;;;-2.20;99.90;;;;;;10385628;28;20126;-51
2021/01/31 07:58:37;;;;;;;5.20;2.17;;;-2.10;99.90;;;;;;10418843;28;20139;-50
2021/01/31 08:04:18;;;;;;;2.58;1.23;;;-2.00;99.90;;;;;;10425971;28;20148;-51
2021/01/31 08:09:40;;;;;;;2.28;0.95;;;-2.10;99.90;;;;;;10426691;28;20076;-50
2021/01/31 08:15:33;;;;;;;3.05;1.58;;;-2.10;99.90;;;;;;10424978;28;20317;-51
2021/01/31 08:20:55;;;;;;;5.13;2.60;;;-2.00;99.90;;;;;;10389269;28;20045;-50
2021/01/31 08:26:35;;;;;;;4.78;2.55;;;-1.90;99.90;;;;;;10394907;28;20141;-50
2021/01/31 08:32:05;;;;;;;4.50;2.28;;;-1.80;99.90;;;;;;10385697;28;20049;-50
2021/01/31 08:37:28;;;;;;;4.57;2.17;;;-1.80;99.90;;;;;;10389092;28;20034;-50
2021/01/31 08:42:53;;;;;;;4.55;1.77;;;-1.80;99.90;;;;;;10389676;28;20231;-50
2021/01/31 08:48:25;;;;;;;6.18;1.55;;;-1.70;99.90;;;;;;10431256;28;20040;-50
2021/01/31 08:54:03;;;;;;;2.20;1.38;;;-1.70;99.90;;;;;;10427367;28;20131;-50
2021/01/31 08:59:44;;;;;;;4.73;3.30;;;-1.50;99.90;;;;;;10427085;28;20029;-50
2021/01/31 09:05:11;;;;;;;5.47;1.70;;;-1.40;99.90;;;;;;10421998;28;20029;-50
2021/01/31 09:10:38;;;;;;;5.43;2.15;;;-1.40;99.90;;;;;;10388009;28;20411;-50
2021/01/31 09:16:29;;;;;;;10.60;2.38;;;-1.30;99.90;;;;;;10390143;28;20040;-52
2021/01/31 09:21:55;;;;;;;3.67;1.73;;;-1.10;99.90;;;;;;10383970;28;20499;-49
2021/01/31 09:27:20;;;;;;;7.78;1.65;;;-0.80;99.90;;;;;;10428903;28;20033;-50
2021/01/31 09:32:45;;;;;;;5.15;2.53;;;-0.80;99.90;;;;;;10429097;28;20068;-52
2021/01/31 09:38:18;;;;;;;5.75;2.08;;;-0.60;99.90;;;;;;10428579;28;20484;-52
2021/01/31 09:43:40;;;;;;;7.03;2.88;;;-0.60;99.90;;;;;;10387929;28;20087;-52
2021/01/31 09:49:23;;;;;;;2.63;1.33;;;-0.30;99.90;;;;;;10375946;28;20053;-50
2021/01/31 09:54:44;;;;;;;10.20;2.45;;;-0.30;99.90;;;;;;10427638;28;20133;-49
2021/01/31 10:00:10;;;;;;;5.63;2.35;;;-0.40;99.90;;;;;;10430551;28;20094;-49
2021/01/31 10:05:36;;;;;;;4.68;2.88;;;-0.40;99.90;;;;;;10422992;28;20564;-49
2021/01/31 10:10:57;;;;;;;5.35;2.30;;;-0.30;99.90;;;;;;10430572;28;20146;-49
2021/01/31 10:16:21;;;;;;;6.65;2.00;;;-0.20;99.90;;;;;;10407147;28;20037;-49
2021/01/31 10:21:56;;;;;;;6.82;1.83;;;-0.30;99.90;;;;;;10425212;28;20147;-49
2021/01/31 10:27:28;;;;;;;9.95;2.97;;;-0.20;99.90;;;;;;10427986;28;20345;-49
2021/01/31 10:32:49;;;;;;;4.47;2.42;;;0.10;99.90;;;;;;10429539;28;20419;-49
2021/01/31 10:38:30;;;;;;;6.95;2.03;;;0.30;99.90;;;;;;10427389;28;20069;-48
2021/01/31 10:43:59;;;;;;;7.95;2.95;;;0.30;99.90;;;;;;10390292;28;20034;-48
2021/01/31 10:49:21;;;;;;;10.60;1.73;;;0.60;99.90;;;;;;10387760;28;20068;-49
2021/01/31 10:54:41;;;;;;;9.07;2.58;;;0.60;99.90;;;;;;10388014;28;20255;-49
2021/01/31 11:00:12;;;;;;;7.32;1.67;;;0.70;99.90;;;;;;10397358;28;20048;-48
2021/01/31 11:05:33;;;;;;;6.45;2.40;;;1.00;99.90;;;;;;10396934;28;20393;-49
2021/01/31 11:10:54;;;;;;;11.13;2.78;;;1.70;99.90;;;;;;10395114;28;20041;-49
2021/01/31 11:16:16;;;;;;;7.07;2.22;;;2.10;99.90;;;;;;10397400;28;20532;-49
2021/01/31 11:21:37;;;;;;;7.45;2.33;;;2.50;99.90;;;;;;10397231;28;20115;-48
2021/01/31 11:26:57;;;;;;;4.50;1.70;;;3.00;99.90;;;;;;10395042;28;20037;-48
2021/01/31 11:32:18;;;;;;;11.45;2.47;;;2.90;99.90;;;;;;10412675;28;20122;-49
2021/01/31 11:37:40;;;;;;;6.07;2.10;;;4.00;99.90;;;;;;10433588;28;20591;-48
2021/01/31 11:43:01;;;;;;;5.18;2.13;;;4.80;99.90;;;;;;10433391;28;20037;-48
2021/01/31 11:48:22;;;;;;;6.22;1.75;;;5.70;99.90;;;;;;10434156;28;20056;-49
2021/01/31 11:53:44;;;;;;;6.47;2.30;;;6.90;99.90;;;;;;10420510;28;20045;-52
2021/01/31 11:59:05;;;;;;;7.55;1.88;;;7.50;99.90;;;;;;10399934;28;20084;-49
2021/01/31 12:04:26;;;;;;;6.72;1.63;;;8.20;99.90;;;;;;10405897;28;20029;-51
2021/01/31 12:09:47;;;;;;;4.35;1.65;;;8.50;99.90;;;;;;10390456;28;20048;-49
2021/01/31 12:15:11;;;;;;;6.68;2.30;;;9.00;99.90;;;;;;10388425;28;20068;-50
2021/01/31 12:20:32;;;;;;;3.47;1.42;;;9.50;97.80;;;;;;10388847;28;20538;-50
2021/01/31 12:25:53;;;;;;;4.60;1.40;;;9.00;98.10;;;;;;10389640;28;20530;-51
2021/01/31 12:31:14;;;;;;;3.65;1.38;;;8.10;99.90;;;;;;10390943;28;20054;-51
2021/01/31 12:36:36;;;;;;;3.92;1.65;;;8.10;99.90;;;;;;10389458;28;20393;-51
2021/01/31 12:41:57;;;;;;;5.03;1.85;;;9.40;99.90;;;;;;10390476;28;20076;-52
2021/01/31 12:47:18;;;;;;;4.60;2.38;;;10.00;95.50;;;;;;10388416;28;20246;-52
2021/01/31 12:52:39;;;;;;;5.47;1.88;;;9.50;96.70;;;;;;10387299;28;20045;-52
2021/01/31 12:58:00;;;;;;;5.47;2.47;;;10.20;96.60;;;;;;10381159;28;20032;-53
2021/01/31 13:03:21;;;;;;;10.80;2.40;;;10.80;92.00;;;;;;10380559;28;20043;-52
2021/01/31 13:08:42;;;;;;;5.53;2.22;;;11.00;90.50;;;;;;10403032;28;20069;-52
2021/01/31 13:14:03;;;;;;;6.05;1.80;;;12.00;87.60;;;;;;10403746;28;20676;-53
2021/01/31 13:19:24;;;;;;;4.32;1.60;;;12.60;79.10;;;;;;10376710;28;20076;-55
2021/01/31 13:24:45;;;;;;;4.65;1.38;;;11.50;81.20;;;;;;10375157;28;20073;-53
2021/01/31 13:30:09;;;;;;;6.05;2.38;;;12.70;77.20;;;;;;10371288;28;20103;-53
2021/01/31 13:35:30;;;;;;;5.85;1.80;;;12.30;72.60;;;;;;10371823;28;20377;-52
2021/01/31 13:40:51;;;;;;;4.88;1.73;;;10.30;82.00;;;;;;10372810;28;20040;-52
2021/01/31 13:46:12;;;;;;;4.30;2.28;;;10.90;83.40;;;;;;10372659;28;20520;-51
2021/01/31 13:51:33;;;;;;;3.95;2.28;;;10.80;90.30;;;;;;10366757;28;20049;-51
2021/01/31 13:56:54;;;;;;;4.82;1.75;;;10.80;83.00;;;;;;10407172;28;20288;-51
2021/01/31 14:02:15;;;;;;;5.15;2.17;;;10.20;81.50;;;;;;10372419;28;20041;-51
2021/01/31 14:07:38;;;;;;;5.47;2.08;;;9.30;89.70;;;;;;10371075;28;20064;-51
2021/01/31 14:12:59;;;;;;;4.75;1.20;;;8.30;92.60;;;;;;10371425;28;20052;-51
2021/01/31 14:18:20;;;;;;;4.88;1.85;;;7.10;99.40;;;;;;10385236;28;20057;-50
2021/01/31 14:23:42;;;;;;;4.78;1.58;;;6.60;99.90;;;;;;10408009;28;20548;-50
2021/01/31 14:29:03;;;;;;;6.05;1.70;;;5.50;99.90;;;;;;10385978;28;20134;-50
2021/01/31 14:34:25;;;;;;;4.28;1.65;;;5.40;99.90;;;;;;10400491;28;20066;-50
2021/01/31 14:39:46;;;;;;;3.40;1.25;;;5.80;99.90;;;;;;10424261;28;20422;-49
2021/01/31 14:45:11;;;;;;;3.88;0.90;;;6.00;99.90;;;;;;10428043;28;20583;-50
2021/01/31 14:50:32;;;;;;;3.92;1.20;;;6.40;99.90;;;;;;10367450;28;20427;-50
2021/01/31 14:55:53;;;;;;;4.13;1.45;;;6.90;99.90;;;;;;10380685;28;20153;-50
2021/01/31 15:01:14;;;;;;;3.08;1.33;;;6.60;99.90;;;;;;10388271;28;20118;-50
2021/01/31 15:06:35;;;;;;;4.07;1.05;;;6.40;99.90;;;;;;10425259;28;20048;-50
2021/01/31 15:11:57;;;;;;;3.42;1.30;;;5.90;99.90;;;;;;10423981;28;20044;-49
2021/01/31 15:17:19;;;;;;;6.57;1.23;;;5.30;99.90;;;;;;10397610;28;20044;-50
2021/01/31 15:22:40;;;;;;;5.68;1.60;;;4.80;99.90;;;;;;10391654;28;20479;-50
2021/01/31 15:28:01;;;;;;;5.05;1.48;;;4.30;99.90;;;;;;10383322;28;20077;-50
2021/01/31 15:33:22;;;;;;;3.92;1.05;;;4.00;99.90;;;;;;10386136;28;20056;-50
2021/01/31 15:38:44;;;;;;;4.28;2.05;;;3.70;99.90;;;;;;10424144;28;20082;-50
2021/01/31 15:44:05;;;;;;;7.93;2.65;;;3.50;99.90;;;;;;10416936;28;20128;-50
2021/01/31 15:49:27;;;;;;;4.35;1.73;;;3.30;99.90;;;;;;10407923;28;20359;-50
2021/01/31 15:54:48;;;;;;;7.10;1.67;;;3.10;99.90;;;;;;10381922;28;20124;-50
2021/01/31 16:00:13;;;;;;;5.20;1.30;;;2.90;99.90;;;;;;10376353;28;20038;-50
2021/01/31 16:05:36;;;;;;;3.20;1.20;;;2.70;99.90;;;;;;10375652;28;20301;-50
2021/01/31 16:10:57;;;;;;;2.22;1.60;;;2.70;99.90;;;;;;10407340;28;20450;-50
2021/01/31 16:16:18;;;;;;;6.25;1.55;;;2.50;99.90;;;;;;10413318;28;20270;-50
2021/01/31 16:21:39;;;;;;;3.13;1.35;;;2.50;99.90;;;;;;10421521;28;20049;-50
2021/01/31 16:27:00;;;;;;;7.57;2.28;;;2.40;99.90;;;;;;10417449;28;20650;-50
2021/01/31 16:32:21;;;;;;;3.63;1.90;;;2.40;99.90;;;;;;10375870;28;20416;-50
2021/01/31 16:37:46;;;;;;;3.17;1.58;;;2.20;99.90;;;;;;10381842;28;20051;-50
2021/01/31 16:43:09;;;;;;;7.35;2.55;;;2.20;99.90;;;;;;10404613;28;20087;-52
2021/01/31 16:48:30;;;;;;;7.80;2.45;;;2.20;99.90;;;;;;10405632;28;22107;-50
2021/01/31 16:53:51;;;;;;;4.65;1.40;;;2.00;99.90;;;;;;10410708;28;20136;-50
2021/01/31 16:59:12;;;;;;;6.32;1.90;;;1.90;99.90;;;;;;10378967;28;20037;-51
2021/01/31 17:04:33;;;;;;;5.45;2.05;;;1.80;99.90;;;;;;10399480;28;20484;-50
2021/01/31 17:09:54;;;;;;;7.82;1.58;;;1.70;99.90;;;;;;10382161;28;20607;-51
2021/01/31 17:15:18;;;;;;;13.93;1.90;;;1.70;99.90;;;;;;10370422;28;20529;-50
2021/01/31 17:20:38;;;;;;;11.60;2.58;;;1.50;99.90;;;;;;10375863;28;20041;-51
2021/01/31 17:25:59;;;;;;;6.22;1.98;;;1.40;99.90;;;;;;10378132;28;20041;-50
2021/01/31 17:31:20;;;;;;;11.40;2.20;;;1.30;99.90;;;;;;10369473;28;20112;-51
2021/01/31 17:36:41;;;;;;;7.80;3.08;;;1.40;99.90;;;;;;10367244;28;20511;-51
2021/01/31 17:42:03;;;;;;;9.75;3.45;;;1.50;99.90;;;;;;10368866;28;20404;-50
2021/01/31 17:47:24;;;;;;;4.47;2.58;;;1.40;99.90;;;;;;10406364;28;20404;-51
2021/01/31 17:52:45;;;;;;;5.75;1.50;;;1.30;99.90;;;;;;10410637;28;20049;-51
2021/01/31 17:58:06;;;;;;;9.65;2.85;;;1.20;99.90;;;;;;10414769;28;20037;-51
2021/01/31 18:03:27;;;;;;;7.18;1.95;;;1.20;99.90;;;;;;10366644;28;20064;-51
2021/01/31 18:08:48;;;;;;;4.47;2.20;;;1.00;99.90;;;;;;10413854;28;20520;-51
2021/01/31 18:14:09;;;;;;;6.05;1.63;;;1.00;99.90;;;;;;10414324;28;20203;-51
2021/01/31 18:19:30;;;;;;;6.78;2.08;;;1.00;99.90;;;;;;10371913;28;20276;-51
2021/01/31 18:24:51;;;;;;;4.57;1.70;;;1.00;99.90;;;;;;10402875;28;20040;-51
2021/01/31 18:30:16;;;;;;;6.60;2.00;;;1.00;99.90;;;;;;10414828;28;20051;-50
2021/01/31 18:35:37;;;;;;;7.68;2.45;;;1.00;99.90;;;;;;10410487;28;20071;-51
2021/01/31 18:40:58;;;;;;;7.03;2.53;;;1.10;99.90;;;;;;10403426;28;20049;-51
2021/01/31 18:46:19;;;;;;;7.82;2.78;;;1.10;99.90;;;;;;10371026;28;20103;-51
2021/01/31 18:51:40;;;;;;;8.95;2.17;;;1.00;99.90;;;;;;10408547;28;20052;-53
2021/01/31 18:57:01;;;;;;;6.00;1.40;;;1.00;99.90;;;;;;10396606;28;20680;-50
2021/01/31 19:02:22;;;;;;;6.78;1.85;;;1.10;99.90;;;;;;10366384;28;20642;-50
2021/01/31 19:07:46;;;;;;;5.13;2.00;;;1.00;99.90;;;;;;10368486;28;20111;-51
2021/01/31 19:13:08;;;;;;;8.00;2.60;;;1.10;99.90;;;;;;10367016;28;20045;-51
2021/01/31 19:18:29;;;;;;;5.97;2.25;;;1.10;99.90;;;;;;10407848;28;20653;-50
2021/01/31 19:23:50;;;;;;;7.22;2.22;;;1.00;99.90;;;;;;10405469;28;20049;-53
2021/01/31 19:29:11;;;;;;;9.43;3.38;;;1.10;99.90;;;;;;10420100;28;20082;-51
2021/01/31 19:34:35;;;;;;;6.38;2.50;;;1.00;99.90;;;;;;10387583;28;20064;-51
2021/01/31 19:39:56;;;;;;;11.48;2.42;;;1.10;99.90;;;;;;10393272;28;20045;-51
2021/01/31 19:45:24;;;;;;;3.92;1.88;;;0.90;99.90;;;;;;10378547;28;20087;-51
2021/01/31 19:50:46;;;;;;;6.28;2.35;;;0.80;99.90;;;;;;10378316;28;20052;-51
2021/01/31 19:56:08;;;;;;;8.07;2.42;;;0.90;99.90;;;;;;10417052;28;20041;-51
2021/01/31 20:01:30;;;;;;;7.35;1.63;;;0.90;99.90;;;;;;10392211;28;20041;-51
2021/01/31 20:06:51;;;;;;;2.28;1.88;;;1.00;99.90;;;;;;10380011;28;20033;-51
2021/01/31 20:12:12;;;;;;;8.63;2.45;;;1.10;99.90;;;;;;10412962;28;20048;-50
2021/01/31 20:17:33;;;;;;;4.43;2.10;;;1.00;99.90;;;;;;10405089;28;22029;-50
2021/01/31 20:22:55;;;;;;;6.60;2.58;;;1.10;99.90;;;;;;10407924;28;20344;-51
2021/01/31 20:28:17;;;;;;;5.85;2.20;;;1.20;99.90;;;;;;10416467;28;20542;-51
2021/01/31 20:33:37;;;;;;;5.55;3.35;;;1.30;99.90;;;;;;10415971;28;20052;-51
2021/01/31 20:38:58;;;;;;;8.35;1.55;;;1.20;99.90;;;;;;10403913;28;20073;-51
2021/01/31 20:44:20;;;;;;;3.67;2.28;;;1.10;99.90;;;;;;10398725;28;20497;-51
2021/01/31 20:49:41;;;;;;;6.05;2.42;;;1.10;99.90;;;;;;10384755;28;20524;-51
2021/01/31 20:55:04;;;;;;;4.68;1.63;;;1.10;99.90;;;;;;10415636;28;20242;-51
2021/01/31 21:00:29;;;;;;;10.25;2.22;;;1.10;99.90;;;;;;10417334;28;20045;-51
2021/01/31 21:05:50;;;;;;;6.03;1.58;;;1.20;99.90;;;;;;10405308;28;20458;-51
2021/01/31 21:11:11;;;;;;;8.35;2.38;;;1.30;99.90;;;;;;10406258;28;20534;-51
2021/01/31 21:16:32;;;;;;;3.83;2.30;;;1.20;99.90;;;;;;10381745;28;20045;-51
2021/01/31 21:21:53;;;;;;;6.18;2.30;;;1.20;99.90;;;;;;10382250;28;20506;-51
2021/01/31 21:27:14;;;;;;;10.27;2.72;;;1.10;99.90;;;;;;10389128;28;20349;-51
2021/01/31 21:32:35;;;;;;;2.45;1.13;;;1.20;99.90;;;;;;10422940;28;20052;-51
2021/01/31 21:37:56;;;;;;;5.13;2.60;;;1.20;99.90;;;;;;10411071;28;20048;-51
2021/01/31 21:43:17;;;;;;;6.78;2.30;;;1.30;99.90;;;;;;10392240;28;20071;-50
2021/01/31 21:48:38;;;;;;;8.23;2.65;;;1.40;99.90;;;;;;10376684;28;20080;-51
2021/01/31 21:53:59;;;;;;;6.80;2.50;;;1.50;99.90;;;;;;10377977;28;20050;-51
2021/01/31 21:59:20;;;;;;;6.72;2.88;;;1.30;99.90;;;;;;10396690;28;20106;-51
2021/01/31 22:04:41;;;;;;;6.70;3.10;;;1.20;99.90;;;;;;10409309;28;20124;-51
2021/01/31 22:10:05;;;;;;;6.88;2.05;;;1.30;99.90;;;;;;10378440;28;20045;-51
2021/01/31 22:15:26;;;;;;;5.78;2.42;;;1.30;99.90;;;;;;10377838;28;20122;-51
2021/01/31 22:20:46;;;;;;;6.05;1.67;;;1.40;99.90;;;;;;10378225;28;20685;-51
2021/01/31 22:26:07;;;;;;;3.67;1.08;;;1.30;99.90;;;;;;10376721;28;20064;-51
2021/01/31 22:31:28;;;;;;;8.02;1.70;;;1.50;99.90;;;;;;10388262;28;20084;-51
2021/01/31 22:36:49;;;;;;;6.47;1.40;;;1.50;99.90;;;;;;10419509;28;20434;-51
2021/01/31 22:42:10;;;;;;;6.18;2.50;;;1.50;99.90;;;;;;10378963;28;20048;-51
2021/01/31 22:47:31;;;;;;;5.28;1.45;;;1.50;99.90;;;;;;10373821;28;20540;-51
2021/01/31 22:52:53;;;;;;;6.13;2.10;;;1.40;99.90;;;;;;10381342;28;20520;-51
2021/01/31 22:58:14;;;;;;;4.90;2.08;;;1.40;99.90;;;;;;10382897;28;20130;-51
2021/01/31 23:03:35;;;;;;;3.72;1.88;;;1.60;99.90;;;;;;10383167;28;20049;-51
2021/01/31 23:08:55;;;;;;;7.80;2.15;;;1.60;99.90;;;;;;10382041;28;20065;-51
2021/01/31 23:14:16;;;;;;;3.75;1.25;;;1.50;99.90;;;;;;10424011;28;20045;-51
2021/01/31 23:19:37;;;;;;;3.80;1.35;;;1.60;99.90;;;;;;10423538;28;20306;-51
2021/01/31 23:25:00;;;;;;;7.50;1.75;;;1.70;99.90;;;;;;10425002;28;20033;-51
2021/01/31 23:30:24;;;;;;;4.68;1.70;;;1.70;99.90;;;;;;10413069;28;20110;-51
2021/01/31 23:35:46;;;;;;;4.88;2.15;;;1.70;99.90;;;;;;10386825;28;20057;-51
2021/01/31 23:41:07;;;;;;;6.28;2.00;;;1.60;99.90;;;;;;10393169;28;20482;-51
2021/01/31 23:46:28;;;;;;;4.72;2.53;;;1.60;99.90;;;;;;10410191;28;20493;-51
2021/01/31 23:51:49;;;;;;;5.30;1.83;;;1.60;99.90;;;;;;10392452;28;20042;-51
2021/01/31 23:57:10;;;;;;;5.63;2.38;;;1.50;99.90;;;;;;10413731;28;20053;-51
